Time;durP1;ratioP1;P1;durP2;ratioP2;P2;SDS_P1;SDS_P2;PMS_P1;PMS_P2;Temp;Humidity;BMP_temperature;BMP_pressure;BME280_temperature;BME280_humidity;BME280_pressure;Samples;Min_cycle;Max_cycle;Signal;HPM_P1;HPM_P2
2022/10/18 00:01:52;;;;;;;14.85;8.30;;;17.50;99.90;;;;;;4954353;28;20023;-74
2022/10/18 00:04:17;;;;;;;15.50;8.30;;;17.50;99.90;;;;;;4955683;28;20026;-77
2022/10/18 00:06:45;;;;;;;12.43;7.38;;;17.50;99.90;;;;;;4953785;28;20106;-77
2022/10/18 00:09:11;;;;;;;11.20;7.60;;;17.50;99.90;;;;;;4954885;28;20368;-76
2022/10/18 00:11:37;;;;;;;12.00;8.32;;;17.50;99.90;;;;;;4947659;28;20406;-78
2022/10/18 00:14:05;;;;;;;14.98;8.02;;;17.50;99.90;;;;;;4948479;28;20094;-75
2022/10/18 00:16:31;;;;;;;12.00;7.90;;;17.50;99.90;;;;;;4955433;28;20101;-76
2022/10/18 00:18:59;;;;;;;9.75;7.00;;;17.50;99.90;;;;;;4947948;28;20448;-76
2022/10/18 00:21:27;;;;;;;16.25;7.65;;;17.50;99.90;;;;;;4952955;28;20031;-77
2022/10/18 00:23:53;;;;;;;11.40;7.38;;;17.50;99.90;;;;;;4950609;28;20126;-77
2022/10/18 00:26:30;;;;;;;14.90;7.88;;;17.50;99.90;;;;;;4955895;28;20039;-74
2022/10/18 00:29:01;;;;;;;13.45;7.53;;;17.50;99.90;;;;;;4955987;28;20103;-73
2022/10/18 00:31:32;;;;;;;13.80;7.40;;;17.50;99.90;;;;;;4960360;28;20019;-79
2022/10/18 00:34:01;;;;;;;17.17;8.07;;;17.50;99.90;;;;;;4949908;28;20724;-76
2022/10/18 00:36:31;;;;;;;10.43;7.63;;;17.50;99.90;;;;;;4955925;28;20106;-78
2022/10/18 00:38:57;;;;;;;10.48;7.07;;;17.50;99.90;;;;;;4953875;28;20031;-76
2022/10/18 00:41:26;;;;;;;15.80;7.60;;;17.50;99.90;;;;;;4956616;28;20357;-76
2022/10/18 00:43:59;;;;;;;14.38;7.45;;;17.50;99.90;;;;;;4953517;28;20037;-75
2022/10/18 00:46:36;;;;;;;8.57;7.43;;;17.60;99.90;;;;;;4951480;28;20020;-77
2022/10/18 00:49:08;;;;;;;13.30;7.28;;;17.50;99.90;;;;;;4958081;28;20031;-76
2022/10/18 00:51:45;;;;;;;9.98;7.25;;;17.50;99.90;;;;;;4952400;28;20020;-77
2022/10/18 00:54:12;;;;;;;9.10;6.78;;;17.50;99.90;;;;;;4958896;28;20027;-77
2022/10/18 00:56:38;;;;;;;11.48;7.07;;;17.50;99.90;;;;;;4956677;28;20029;-76
2022/10/18 00:59:04;;;;;;;13.27;7.55;;;17.50;99.90;;;;;;4955170;28;20023;-77
2022/10/18 01:01:32;;;;;;;11.43;6.90;;;17.50;99.90;;;;;;4960098;28;20334;-77
2022/10/18 01:03:58;;;;;;;17.25;7.38;;;17.40;99.90;;;;;;4957158;28;20039;-77
2022/10/18 01:06:27;;;;;;;7.63;6.75;;;17.40;99.90;;;;;;4955620;28;20023;-77
2022/10/18 01:09:19;;;;;;;8.45;6.65;;;17.40;99.90;;;;;;4952327;28;20023;-75
2022/10/18 01:12:23;;;;;;;6.97;6.28;;;17.40;99.90;;;;;;4957187;28;20028;-76
2022/10/18 01:15:07;;;;;;;8.65;5.75;;;17.50;99.90;;;;;;4955176;28;20019;-77
2022/10/18 01:17:48;;;;;;;11.52;6.72;;;17.50;99.90;;;;;;4954259;28;20402;-77
2022/10/18 01:20:37;;;;;;;9.85;5.65;;;17.40;99.90;;;;;;4961202;28;20036;-75
2022/10/18 01:23:38;;;;;;;13.40;6.40;;;17.40;99.90;;;;;;4954713;28;20042;-77
2022/10/18 01:26:09;;;;;;;15.07;6.78;;;17.40;99.90;;;;;;4953893;28;20070;-77
2022/10/18 01:28:57;;;;;;;8.73;6.55;;;17.40;99.90;;;;;;4952887;28;20072;-76
2022/10/18 01:31:31;;;;;;;18.67;6.45;;;17.30;99.90;;;;;;4949236;28;20193;-77
2022/10/18 01:34:01;;;;;;;12.07;6.35;;;17.30;99.90;;;;;;4953015;28;20125;-77
2022/10/18 01:36:35;;;;;;;9.02;6.15;;;17.20;99.90;;;;;;4955828;28;20074;-76
2022/10/18 01:39:13;;;;;;;10.55;6.18;;;17.30;99.90;;;;;;4955032;28;20512;-77
2022/10/18 01:41:42;;;;;;;10.73;6.63;;;17.30;99.90;;;;;;4949315;28;20027;-77
2022/10/18 01:44:16;;;;;;;10.52;7.13;;;17.30;99.90;;;;;;4952823;28;20022;-76
2022/10/18 01:46:43;;;;;;;8.90;6.43;;;17.30;99.90;;;;;;4955081;28;20024;-77
2022/10/18 01:49:13;;;;;;;9.75;5.95;;;17.30;99.90;;;;;;4957023;28;20097;-77
2022/10/18 01:51:38;;;;;;;8.48;5.80;;;17.30;99.90;;;;;;4957007;28;20418;-78
2022/10/18 01:54:04;;;;;;;13.75;6.88;;;17.20;99.90;;;;;;4959227;28;20023;-76
2022/10/18 01:56:44;;;;;;;7.93;6.05;;;17.30;99.90;;;;;;4956725;28;20135;-77
2022/10/18 01:59:29;;;;;;;6.22;5.63;;;17.30;99.90;;;;;;4958124;28;20027;-77
2022/10/18 02:02:25;;;;;;;12.65;5.93;;;17.20;99.90;;;;;;4951668;28;20117;-78
2022/10/18 02:05:19;;;;;;;11.27;5.78;;;17.30;99.90;;;;;;4952186;28;20066;-78
2022/10/18 02:08:02;;;;;;;10.05;5.82;;;17.30;99.90;;;;;;4953881;28;20097;-77
2022/10/18 02:10:39;;;;;;;11.02;6.80;;;17.30;99.90;;;;;;4957810;28;20019;-78
2022/10/18 02:13:06;;;;;;;12.30;6.50;;;17.30;99.90;;;;;;4954327;28;20031;-77
2022/10/18 02:15:38;;;;;;;12.57;6.38;;;17.40;99.90;;;;;;4957072;28;20101;-77
2022/10/18 02:18:11;;;;;;;8.38;6.78;;;17.40;99.90;;;;;;4953353;28;20040;-78
2022/10/18 02:20:37;;;;;;;8.18;6.25;;;17.40;99.90;;;;;;4950090;28;20058;-78
2022/10/18 02:23:08;;;;;;;9.07;6.47;;;17.30;99.90;;;;;;4951230;28;20106;-76
2022/10/18 02:25:34;;;;;;;11.85;6.55;;;17.30;99.90;;;;;;4972036;28;20381;-77
2022/10/18 02:28:02;;;;;;;12.45;6.68;;;17.30;99.90;;;;;;4948513;28;20138;-77
2022/10/18 02:30:38;;;;;;;13.82;6.80;;;17.30;99.90;;;;;;4951252;28;20428;-76
2022/10/18 02:33:21;;;;;;;6.93;6.22;;;17.30;99.90;;;;;;4954090;28;20027;-77
2022/10/18 02:35:55;;;;;;;10.25;6.65;;;17.30;99.90;;;;;;4964018;28;20147;-77
2022/10/18 02:38:24;;;;;;;11.75;6.82;;;17.30;99.90;;;;;;4952973;28;20038;-77
2022/10/18 02:40:52;;;;;;;9.98;7.07;;;17.30;99.90;;;;;;4952811;28;20045;-77
2022/10/18 02:43:18;;;;;;;12.55;7.18;;;17.30;99.90;;;;;;4952794;28;20031;-75
2022/10/18 02:45:43;;;;;;;8.60;7.07;;;17.30;99.90;;;;;;4951099;28;20031;-77
2022/10/18 02:48:09;;;;;;;11.35;7.45;;;17.20;99.90;;;;;;4958775;28;20117;-76
2022/10/18 02:50:37;;;;;;;9.02;7.53;;;17.20;99.90;;;;;;4954339;28;20038;-80
2022/10/18 02:53:03;;;;;;;12.88;7.80;;;17.30;99.90;;;;;;4948368;28;20027;-74
2022/10/18 02:55:28;;;;;;;9.07;6.88;;;17.30;99.90;;;;;;4950969;28;20082;-77
2022/10/18 02:57:54;;;;;;;13.52;6.60;;;17.30;99.90;;;;;;4955351;28;20046;-77
2022/10/18 03:00:22;;;;;;;11.10;7.82;;;17.30;99.90;;;;;;4957426;28;20620;-76
2022/10/18 03:02:51;;;;;;;16.08;8.27;;;17.30;99.90;;;;;;4954324;28;20031;-77
2022/10/18 03:05:17;;;;;;;12.18;7.78;;;17.30;99.90;;;;;;4954608;28;20035;-72
2022/10/18 03:07:45;;;;;;;13.95;8.13;;;17.30;99.90;;;;;;4951418;28;20631;-75
2022/10/18 03:10:13;;;;;;;10.55;7.78;;;17.30;99.90;;;;;;4947975;28;20043;-76
2022/10/18 03:12:38;;;;;;;14.10;8.05;;;17.30;99.90;;;;;;4950686;28;20515;-75
2022/10/18 03:15:04;;;;;;;12.25;7.47;;;17.30;99.90;;;;;;4949266;28;20094;-77
2022/10/18 03:17:32;;;;;;;11.25;7.72;;;17.30;99.90;;;;;;4948503;28;20062;-77
2022/10/18 03:19:58;;;;;;;11.10;8.27;;;17.30;99.90;;;;;;4951031;28;20032;-76
2022/10/18 03:22:24;;;;;;;13.88;7.95;;;17.30;99.90;;;;;;4956675;28;20039;-77
2022/10/18 03:24:49;;;;;;;13.18;8.48;;;17.30;99.90;;;;;;4955039;28;20103;-76
2022/10/18 03:27:20;;;;;;;15.85;8.35;;;17.30;99.90;;;;;;4952105;28;20110;-77
2022/10/18 03:29:46;;;;;;;10.00;7.63;;;17.30;99.90;;;;;;4953953;28;20082;-77
2022/10/18 03:32:11;;;;;;;14.40;8.15;;;17.40;99.90;;;;;;4955907;28;20023;-77
2022/10/18 03:34:37;;;;;;;13.48;8.48;;;17.40;99.90;;;;;;4960671;28;20019;-77
2022/10/18 03:37:07;;;;;;;11.85;7.85;;;17.40;99.90;;;;;;4959545;28;20377;-77
2022/10/18 03:39:33;;;;;;;13.10;8.80;;;17.40;99.90;;;;;;4951022;28;20031;-75
2022/10/18 03:41:58;;;;;;;11.18;7.43;;;17.30;99.90;;;;;;4951407;28;20027;-77
2022/10/18 03:44:24;;;;;;;14.45;7.93;;;17.40;99.90;;;;;;4950819;28;20023;-76
2022/10/18 03:46:49;;;;;;;10.65;9.32;;;17.40;99.90;;;;;;4951547;28;20023;-77
2022/10/18 03:49:15;;;;;;;11.45;8.60;;;17.40;99.90;;;;;;4955492;28;20030;-77
2022/10/18 03:51:40;;;;;;;11.88;8.60;;;17.30;99.90;;;;;;4953613;28;20022;-77
2022/10/18 03:54:09;;;;;;;13.43;9.07;;;17.20;99.90;;;;;;4960122;28;20585;-76
2022/10/18 03:56:34;;;;;;;16.40;8.85;;;17.30;99.90;;;;;;4953887;28;20071;-77
2022/10/18 03:59:01;;;;;;;12.32;8.77;;;17.30;99.90;;;;;;4957255;28;20089;-79
2022/10/18 04:01:27;;;;;;;10.25;8.23;;;17.20;99.90;;;;;;4955004;28;20110;-76
2022/10/18 04:03:52;;;;;;;11.10;9.32;;;17.30;99.90;;;;;;4948318;28;20844;-77
2022/10/18 04:06:18;;;;;;;12.27;9.13;;;17.20;99.90;;;;;;4952619;28;20027;-76
2022/10/18 04:08:46;;;;;;;14.20;8.02;;;17.30;99.90;;;;;;4947412;28;20023;-77
2022/10/18 04:11:13;;;;;;;15.98;10.32;;;17.30;99.90;;;;;;4955099;28;20058;-77
2022/10/18 04:13:39;;;;;;;16.00;9.02;;;17.30;99.90;;;;;;4960924;28;20058;-76
2022/10/18 04:16:07;;;;;;;11.80;8.77;;;17.30;99.90;;;;;;4959248;28;20047;-77
2022/10/18 04:18:33;;;;;;;15.73;9.43;;;17.20;99.90;;;;;;4961830;28;20031;-77
2022/10/18 04:20:58;;;;;;;14.98;8.68;;;17.20;99.90;;;;;;4959706;28;20028;-77
2022/10/18 04:23:24;;;;;;;15.52;9.65;;;17.20;99.90;;;;;;4959651;28;20101;-78
2022/10/18 04:25:49;;;;;;;14.75;8.88;;;17.10;99.90;;;;;;4953238;28;20034;-77
2022/10/18 04:28:15;;;;;;;13.75;9.02;;;17.10;99.90;;;;;;4954090;28;20023;-77
2022/10/18 04:30:41;;;;;;;14.98;8.98;;;17.00;99.90;;;;;;4958946;28;20030;-77
2022/10/18 04:33:06;;;;;;;15.02;9.23;;;17.10;99.90;;;;;;4953005;28;20082;-77
2022/10/18 04:35:35;;;;;;;12.32;9.07;;;17.10;99.90;;;;;;4952654;28;20027;-77
2022/10/18 04:38:00;;;;;;;12.02;8.95;;;17.10;99.90;;;;;;4958740;28;20039;-77
2022/10/18 04:40:28;;;;;;;14.60;8.80;;;17.10;99.90;;;;;;4958087;28;20097;-77
2022/10/18 04:42:57;;;;;;;15.30;9.57;;;17.10;99.90;;;;;;4956144;28;20197;-77
2022/10/18 04:45:22;;;;;;;16.83;11.65;;;17.10;99.90;;;;;;4962179;28;20028;-75
2022/10/18 04:47:52;;;;;;;22.80;9.80;;;17.10;99.90;;;;;;4962474;28;20034;-77
2022/10/18 04:50:20;;;;;;;17.83;10.52;;;17.10;99.90;;;;;;4956543;28;20043;-76
2022/10/18 04:52:48;;;;;;;15.25;10.10;;;17.10;99.90;;;;;;4959001;28;20102;-77
2022/10/18 04:55:16;;;;;;;25.55;10.25;;;17.20;99.90;;;;;;4953399;28;20194;-75
2022/10/18 04:57:42;;;;;;;12.85;10.20;;;17.10;99.90;;;;;;4953857;28;20031;-76
2022/10/18 05:00:07;;;;;;;16.38;10.38;;;17.10;99.90;;;;;;4964702;28;20045;-78
2022/10/18 05:02:33;;;;;;;15.82;10.40;;;17.10;99.90;;;;;;4958032;28;20049;-77
2022/10/18 05:04:59;;;;;;;15.32;10.32;;;17.10;99.90;;;;;;4961445;28;20046;-77
2022/10/18 05:07:24;;;;;;;13.90;10.07;;;17.10;99.90;;;;;;4961237;28;20031;-76
2022/10/18 05:09:50;;;;;;;19.23;10.18;;;17.10;99.90;;;;;;4968322;28;20512;-76
2022/10/18 05:12:15;;;;;;;14.00;9.43;;;17.10;99.90;;;;;;4960022;28;20026;-77
2022/10/18 05:14:41;;;;;;;11.40;9.40;;;17.10;99.90;;;;;;4956677;28;20438;-78
2022/10/18 05:17:07;;;;;;;17.98;10.00;;;17.10;99.90;;;;;;4948382;28;20512;-76
2022/10/18 05:19:32;;;;;;;15.15;10.95;;;17.10;99.90;;;;;;4953813;28;20042;-77
2022/10/18 05:22:00;;;;;;;19.17;10.98;;;17.10;99.90;;;;;;4948466;28;20051;-75
2022/10/18 05:24:26;;;;;;;18.73;10.40;;;17.20;99.90;;;;;;4954386;28;20023;-78
2022/10/18 05:26:57;;;;;;;14.75;10.10;;;17.20;99.90;;;;;;4950992;28;20369;-78
2022/10/18 05:29:24;;;;;;;12.65;9.88;;;17.20;99.90;;;;;;4957924;28;20035;-77
2022/10/18 05:31:50;;;;;;;14.68;9.82;;;17.20;99.90;;;;;;4956082;28;20027;-78
2022/10/18 05:34:17;;;;;;;16.95;10.60;;;17.20;99.90;;;;;;4963524;28;20030;-77
2022/10/18 05:36:42;;;;;;;18.33;10.20;;;17.20;99.90;;;;;;4957358;28;20692;-76
2022/10/18 05:39:08;;;;;;;18.80;10.82;;;17.20;99.90;;;;;;4963587;28;20094;-77
2022/10/18 05:41:35;;;;;;;18.48;10.05;;;17.20;99.90;;;;;;4955162;28;20066;-77
2022/10/18 05:44:07;;;;;;;18.58;11.02;;;17.20;99.90;;;;;;4954775;28;20045;-77
2022/10/18 05:46:33;;;;;;;;;;;17.30;99.90;;;;;;4949673;28;20377;-76
2022/10/18 05:49:01;;;;;;;13.65;9.50;;;17.20;99.90;;;;;;4948622;28;19926;-77
2022/10/18 05:51:27;;;;;;;28.42;10.52;;;17.20;99.90;;;;;;4950256;28;20024;-77
2022/10/18 05:53:54;;;;;;;32.90;13.15;;;17.20;99.90;;;;;;4952366;28;20062;-77
2022/10/18 05:56:20;;;;;;;29.52;12.90;;;17.20;99.90;;;;;;4965445;28;20054;-77
2022/10/18 05:58:50;;;;;;;38.90;13.15;;;17.20;99.90;;;;;;4957644;28;20117;-77
2022/10/18 06:01:16;;;;;;;33.15;13.75;;;17.20;99.90;;;;;;4958567;28;20105;-79
2022/10/18 06:03:42;;;;;;;43.75;14.43;;;17.20;99.90;;;;;;4953905;28;20027;-76
2022/10/18 06:06:11;;;;;;;36.03;14.15;;;17.10;99.90;;;;;;4956081;28;20027;-76
2022/10/18 06:08:38;;;;;;;46.50;14.90;;;17.00;99.90;;;;;;4952988;28;20031;-77
2022/10/18 06:11:10;;;;;;;48.58;14.20;;;16.90;99.90;;;;;;4951968;28;20125;-77
2022/10/18 06:13:44;;;;;;;66.65;15.02;;;16.90;99.90;;;;;;4947945;28;20027;-75
2022/10/18 06:16:13;;;;;;;48.88;17.73;;;16.90;99.90;;;;;;4963752;28;20031;-78
2022/10/18 06:18:40;;;;;;;49.45;16.63;;;17.00;99.90;;;;;;4958384;28;20024;-76
2022/10/18 06:21:11;;;;;;;65.60;18.85;;;17.00;99.90;;;;;;4977866;28;20452;-77
2022/10/18 06:23:36;;;;;;;45.05;17.13;;;16.90;99.90;;;;;;4958492;28;20449;-77
2022/10/18 06:26:08;;;;;;;57.58;18.40;;;16.80;99.90;;;;;;4955451;28;20036;-76
2022/10/18 06:28:35;;;;;;;54.87;17.60;;;16.80;99.90;;;;;;4976462;28;20030;-77
2022/10/18 06:31:04;;;;;;;39.97;17.25;;;16.80;99.90;;;;;;4963601;28;20038;-77
2022/10/18 06:33:31;;;;;;;47.45;18.10;;;16.80;99.90;;;;;;4953407;28;20110;-77
2022/10/18 06:35:59;;;;;;;48.33;17.60;;;16.90;99.90;;;;;;4951908;28;20035;-74
2022/10/18 06:38:25;;;;;;;36.20;18.30;;;17.00;99.90;;;;;;4952149;28;20110;-77
2022/10/18 06:40:53;;;;;;;86.50;18.35;;;16.90;99.90;;;;;;4950817;28;20039;-76
2022/10/18 06:43:19;;;;;;;53.58;18.73;;;17.00;99.90;;;;;;4954184;28;20079;-78
2022/10/18 06:45:47;;;;;;;54.67;18.10;;;16.80;99.90;;;;;;4957642;28;20414;-77
2022/10/18 06:48:12;;;;;;;59.63;19.60;;;16.90;99.90;;;;;;4963885;28;20492;-77
2022/10/18 06:50:38;;;;;;;64.55;21.45;;;17.00;99.90;;;;;;4959115;28;20100;-75
2022/10/18 06:53:05;;;;;;;49.35;22.10;;;17.00;99.90;;;;;;4958137;28;20034;-77
2022/10/18 06:55:31;;;;;;;78.88;22.23;;;17.10;99.90;;;;;;4954272;28;20432;-77
2022/10/18 06:57:56;;;;;;;39.45;21.80;;;17.10;99.90;;;;;;4948505;28;20051;-75
2022/10/18 07:00:22;;;;;;;51.75;22.23;;;16.90;99.90;;;;;;4950524;28;20083;-76
2022/10/18 07:02:50;;;;;;;57.88;23.70;;;17.00;99.90;;;;;;4947813;28;20041;-76
2022/10/18 07:05:16;;;;;;;45.90;21.60;;;17.10;99.90;;;;;;4952387;28;20102;-76
2022/10/18 07:07:41;;;;;;;68.30;22.30;;;17.20;99.90;;;;;;4951241;28;20015;-77
2022/10/18 07:10:09;;;;;;;60.75;19.63;;;17.10;99.90;;;;;;4956784;28;20418;-77
2022/10/18 07:12:38;;;;;;;38.58;20.20;;;17.10;99.90;;;;;;4955962;28;20078;-78
2022/10/18 07:15:04;;;;;;;76.05;23.20;;;17.00;99.90;;;;;;4957251;28;20543;-77
2022/10/18 07:17:30;;;;;;;53.20;21.33;;;17.10;99.90;;;;;;4955772;28;20042;-77
2022/10/18 07:19:57;;;;;;;49.95;21.38;;;17.10;99.90;;;;;;4959785;28;20031;-76
2022/10/18 07:22:25;;;;;;;57.00;22.05;;;17.00;99.90;;;;;;4949211;28;20035;-74
2022/10/18 07:24:51;;;;;;;43.33;21.85;;;17.00;99.90;;;;;;4954497;28;20126;-72
2022/10/18 07:27:16;;;;;;;52.72;21.42;;;17.00;99.90;;;;;;4952292;28;20122;-73
2022/10/18 07:29:44;;;;;;;50.72;23.40;;;17.10;99.90;;;;;;4949225;28;20102;-74
2022/10/18 07:32:10;;;;;;;42.63;22.48;;;17.10;99.90;;;;;;4952808;28;20038;-77
2022/10/18 07:34:36;;;;;;;39.15;21.35;;;17.20;99.90;;;;;;4954621;28;20020;-77
2022/10/18 07:37:01;;;;;;;40.05;20.77;;;17.30;99.90;;;;;;4958926;28;20055;-78
2022/10/18 07:39:27;;;;;;;42.75;20.50;;;17.30;99.90;;;;;;4954730;28;20054;-77
2022/10/18 07:41:53;;;;;;;50.47;21.83;;;17.20;99.90;;;;;;4962193;28;20037;-77
2022/10/18 07:44:18;;;;;;;40.22;21.88;;;17.20;99.90;;;;;;4956180;28;20019;-77
2022/10/18 07:46:46;;;;;;;49.67;20.55;;;17.20;99.90;;;;;;4952434;28;20037;-78
2022/10/18 07:49:12;;;;;;;58.15;21.40;;;17.10;99.90;;;;;;4951160;28;20031;-77
2022/10/18 07:51:40;;;;;;;48.17;21.45;;;17.10;99.90;;;;;;4950711;28;20042;-75
2022/10/18 07:54:08;;;;;;;42.72;20.00;;;17.10;99.90;;;;;;4948817;28;20143;-74
2022/10/18 07:56:34;;;;;;;38.70;19.77;;;17.00;99.90;;;;;;4947171;28;20413;-77
2022/10/18 07:59:01;;;;;;;33.88;18.42;;;17.10;99.90;;;;;;4972468;28;20027;-77
2022/10/18 08:01:27;;;;;;;30.60;17.80;;;17.10;99.90;;;;;;4958190;28;20532;-78
2022/10/18 08:03:53;;;;;;;35.25;18.08;;;17.20;99.90;;;;;;4953038;28;20044;-78
2022/10/18 08:06:22;;;;;;;35.20;19.33;;;17.30;99.90;;;;;;4956327;28;20065;-77
2022/10/18 08:08:48;;;;;;;30.60;17.85;;;17.30;99.90;;;;;;4955588;28;20082;-76
2022/10/18 08:11:22;;;;;;;31.63;18.73;;;17.30;99.90;;;;;;4951617;28;20032;-78
2022/10/18 08:13:48;;;;;;;35.70;19.73;;;17.30;99.90;;;;;;4947075;28;20026;-79
2022/10/18 08:16:22;;;;;;;36.33;20.05;;;17.40;99.90;;;;;;4954331;28;20103;-76
2022/10/18 08:18:48;;;;;;;42.10;19.08;;;17.40;99.90;;;;;;4958409;28;20031;-75
2022/10/18 08:21:18;;;;;;;41.83;19.55;;;17.40;99.90;;;;;;4956196;28;20046;-76
2022/10/18 08:23:44;;;;;;;46.05;20.17;;;17.60;99.90;;;;;;4952871;28;20082;-78
2022/10/18 08:26:15;;;;;;;51.85;22.17;;;17.60;99.90;;;;;;4954539;28;20094;-76
2022/10/18 08:28:41;;;;;;;49.80;20.77;;;17.70;99.90;;;;;;4951637;28;20573;-77
2022/10/18 08:31:12;;;;;;;49.88;21.00;;;17.90;99.90;;;;;;4969027;28;20105;-77
2022/10/18 08:33:40;;;;;;;60.55;19.73;;;17.90;99.90;;;;;;4957455;28;20338;-77
2022/10/18 08:36:10;;;;;;;50.20;20.73;;;17.90;99.90;;;;;;4955770;28;20027;-77
2022/10/18 08:38:37;;;;;;;42.90;18.83;;;17.80;99.90;;;;;;4948894;28;20067;-77
2022/10/18 08:41:41;;;;;;;49.22;20.65;;;17.70;99.90;;;;;;4949615;28;20135;-75
2022/10/18 08:44:15;;;;;;;53.15;20.40;;;17.60;99.90;;;;;;4948734;28;20031;-77
2022/10/18 08:46:48;;;;;;;46.95;18.98;;;17.60;99.90;;;;;;4959946;28;20139;-77
2022/10/18 08:49:25;;;;;;;47.65;19.52;;;17.50;99.90;;;;;;4959471;28;20041;-75
2022/10/18 08:51:51;;;;;;;42.33;19.30;;;17.60;99.90;;;;;;4953385;28;20020;-77
2022/10/18 08:54:35;;;;;;;46.38;18.52;;;17.60;99.90;;;;;;4958254;28;20038;-77
2022/10/18 08:57:12;;;;;;;40.13;17.73;;;17.60;99.90;;;;;;4953851;28;20023;-77
2022/10/18 08:59:39;;;;;;;40.60;17.73;;;17.80;99.90;;;;;;4956117;28;20082;-75
2022/10/18 09:02:24;;;;;;;35.85;16.77;;;18.30;99.90;;;;;;4952958;28;20027;-74
2022/10/18 09:05:07;;;;;;;41.53;17.85;;;18.60;99.90;;;;;;4966726;28;20064;-77
2022/10/18 09:07:43;;;;;;;38.60;17.05;;;19.40;99.90;;;;;;4955092;28;20138;-76
2022/10/18 09:10:28;;;;;;;34.80;16.83;;;21.50;99.90;;;;;;4959154;28;20049;-78
2022/10/18 09:13:17;;;;;;;34.35;16.13;;;22.50;99.90;;;;;;4949247;28;20031;-77
2022/10/18 09:16:06;;;;;;;33.28;15.50;;;21.60;99.90;;;;;;4969363;28;20023;-77
2022/10/18 09:18:35;;;;;;;30.30;15.25;;;20.80;99.90;;;;;;4958894;28;20038;-76
2022/10/18 09:21:13;;;;;;;39.72;17.20;;;20.20;99.90;;;;;;4957475;28;20046;-77
2022/10/18 09:23:54;;;;;;;34.13;16.08;;;19.90;99.90;;;;;;4963513;28;20123;-75
2022/10/18 09:26:22;;;;;;;29.92;14.70;;;20.30;99.90;;;;;;4961855;28;20035;-73
2022/10/18 09:29:27;;;;;;;38.28;18.98;;;20.60;99.90;;;;;;4957708;28;20032;-77
2022/10/18 09:31:58;;;;;;;25.52;13.90;;;21.50;99.90;;;;;;4954391;28;20110;-74
2022/10/18 09:34:36;;;;;;;30.02;14.75;;;22.30;99.90;;;;;;4950422;28;20031;-78
2022/10/18 09:37:03;;;;;;;35.08;13.55;;;22.70;99.90;;;;;;4953567;28;20134;-77
2022/10/18 09:39:33;;;;;;;23.65;12.23;;;23.10;99.90;;;;;;4951357;28;20031;-77
2022/10/18 09:42:04;;;;;;;27.30;12.38;;;23.30;99.90;;;;;;4952271;28;20700;-78
2022/10/18 09:44:50;;;;;;;26.95;12.43;;;23.30;99.90;;;;;;4952635;28;20039;-77
2022/10/18 09:47:25;;;;;;;22.67;14.10;;;23.50;99.90;;;;;;4955992;28;20123;-77
2022/10/18 09:50:05;;;;;;;28.85;13.52;;;23.60;99.90;;;;;;4960204;28;20011;-77
2022/10/18 09:52:42;;;;;;;23.48;12.95;;;23.40;99.90;;;;;;4953240;28;20334;-77
2022/10/18 09:55:14;;;;;;;32.97;14.98;;;22.70;99.90;;;;;;4953803;28;20023;-76
2022/10/18 09:57:49;;;;;;;26.95;14.15;;;22.00;99.90;;;;;;4946863;28;20024;-75
2022/10/18 10:00:22;;;;;;;28.05;14.65;;;21.90;99.90;;;;;;4946856;28;20035;-77
2022/10/18 10:02:47;;;;;;;;;;;22.10;99.90;;;;;;4951898;28;20031;-77
2022/10/18 10:05:14;;;;;;;28.90;13.30;;;22.40;99.90;;;;;;4953715;28;19991;-77
2022/10/18 10:07:46;;;;;;;26.58;13.25;;;22.80;99.90;;;;;;4953512;28;20031;-77
2022/10/18 10:10:18;;;;;;;29.17;11.82;;;23.10;99.90;;;;;;4950582;28;20034;-76
2022/10/18 10:12:44;;;;;;;23.92;11.15;;;23.50;99.90;;;;;;4951499;28;20441;-77
2022/10/18 10:15:22;;;;;;;24.10;12.55;;;23.80;99.90;;;;;;4952963;28;20090;-74
2022/10/18 10:17:57;;;;;;;26.80;13.55;;;23.90;99.90;;;;;;4954125;28;20035;-74
2022/10/18 10:20:41;;;;;;;19.90;11.77;;;23.40;99.90;;;;;;4955176;28;20117;-77
2022/10/18 10:23:15;;;;;;;22.70;10.63;;;22.70;99.90;;;;;;4952141;28;20041;-77
2022/10/18 10:25:41;;;;;;;27.27;11.82;;;22.20;99.90;;;;;;4952578;28;20130;-78
2022/10/18 10:28:19;;;;;;;20.85;11.32;;;22.30;99.90;;;;;;4954975;28;20405;-77
2022/10/18 10:30:45;;;;;;;24.35;10.45;;;23.00;99.90;;;;;;4948791;28;20134;-77
2022/10/18 10:33:34;;;;;;;23.00;9.50;;;23.40;99.90;;;;;;4952907;28;20122;-77
2022/10/18 10:36:02;;;;;;;27.90;10.43;;;24.20;99.90;;;;;;4952640;28;20035;-78
2022/10/18 10:38:29;;;;;;;20.90;9.90;;;24.70;97.00;;;;;;4958130;28;20090;-78
2022/10/18 10:40:56;;;;;;;19.10;10.18;;;24.70;95.90;;;;;;4955080;28;20038;-78
2022/10/18 10:43:31;;;;;;;23.88;10.95;;;24.80;98.00;;;;;;4949539;28;20027;-77
2022/10/18 10:46:07;;;;;;;23.77;9.20;;;24.90;97.90;;;;;;4948650;28;20050;-75
2022/10/18 10:48:50;;;;;;;19.70;9.80;;;25.00;95.90;;;;;;4947890;28;20114;-75
2022/10/18 10:51:36;;;;;;;21.85;10.20;;;25.30;95.10;;;;;;4949929;28;20015;-76
2022/10/18 10:54:15;;;;;;;14.20;8.60;;;25.30;95.40;;;;;;4947869;28;20453;-76
2022/10/18 10:57:03;;;;;;;18.77;9.13;;;25.30;92.90;;;;;;4958536;28;20322;-78
2022/10/18 10:59:58;;;;;;;23.40;9.90;;;25.00;93.70;;;;;;4952089;28;20042;-76
2022/10/18 11:02:35;;;;;;;23.13;7.68;;;24.90;93.80;;;;;;4950736;28;20663;-77
2022/10/18 11:05:28;;;;;;;22.17;8.40;;;24.90;93.60;;;;;;4955306;28;20110;-77
2022/10/18 11:08:01;;;;;;;21.13;8.07;;;24.90;92.20;;;;;;4955382;28;20476;-78
2022/10/18 11:10:31;;;;;;;20.40;7.10;;;24.90;93.00;;;;;;4952814;28;20106;-76
2022/10/18 11:13:21;;;;;;;16.63;6.47;;;24.90;91.50;;;;;;4953450;28;20027;-75
2022/10/18 11:15:53;;;;;;;18.50;7.00;;;24.90;91.60;;;;;;4950672;28;20019;-76
2022/10/18 11:18:32;;;;;;;19.30;6.75;;;24.90;91.50;;;;;;4945829;28;20198;-76
2022/10/18 11:21:06;;;;;;;19.92;7.00;;;25.00;91.50;;;;;;4952767;28;20032;-74
2022/10/18 11:23:34;;;;;;;17.38;6.43;;;25.10;91.00;;;;;;4957262;28;20019;-77
2022/10/18 11:26:09;;;;;;;18.38;6.20;;;25.10;90.20;;;;;;4954702;28;20023;-76
2022/10/18 11:28:57;;;;;;;19.77;6.72;;;25.20;90.80;;;;;;4954047;28;20039;-74
2022/10/18 11:31:32;;;;;;;14.73;5.72;;;25.30;90.20;;;;;;4963064;28;20162;-74
2022/10/18 11:34:20;;;;;;;17.50;6.25;;;25.40;86.40;;;;;;4956116;28;20031;-74
2022/10/18 11:37:09;;;;;;;14.98;5.82;;;25.60;87.10;;;;;;4943728;28;20019;-74
2022/10/18 11:39:55;;;;;;;14.98;6.93;;;25.10;86.20;;;;;;4953096;28;20505;-75
2022/10/18 11:42:48;;;;;;;19.27;5.30;;;25.20;87.50;;;;;;4950838;28;20022;-76
2022/10/18 11:45:45;;;;;;;11.40;4.03;;;25.30;85.80;;;;;;4948116;28;20142;-76
2022/10/18 11:48:40;;;;;;;9.80;3.40;;;25.30;79.50;;;;;;4958292;28;20051;-74
2022/10/18 11:51:12;;;;;;;14.40;4.78;;;25.60;84.80;;;;;;4953521;28;20023;-74
2022/10/18 11:53:48;;;;;;;10.15;4.00;;;26.10;82.50;;;;;;4949873;28;20028;-74
2022/10/18 11:56:24;;;;;;;16.20;5.65;;;26.20;81.00;;;;;;4955978;28;20029;-73
2022/10/18 11:59:10;;;;;;;13.43;4.10;;;26.20;85.20;;;;;;4947997;28;20035;-74
2022/10/18 12:01:51;;;;;;;15.57;4.53;;;26.20;80.20;;;;;;4956727;28;20027;-74
2022/10/18 12:04:22;;;;;;;15.13;4.45;;;26.00;80.50;;;;;;4951733;28;20024;-74
2022/10/18 12:06:55;;;;;;;15.25;4.47;;;25.90;79.70;;;;;;4956697;28;20035;-71
2022/10/18 12:09:40;;;;;;;12.18;3.92;;;26.10;80.90;;;;;;4954948;28;20547;-74
2022/10/18 12:12:12;;;;;;;13.73;3.47;;;25.60;76.20;;;;;;4952593;28;20031;-74
2022/10/18 12:14:50;;;;;;;14.60;4.22;;;25.20;80.40;;;;;;4950668;28;20020;-73
2022/10/18 12:17:22;;;;;;;13.13;4.22;;;25.50;80.70;;;;;;4951590;28;20114;-74
2022/10/18 12:19:52;;;;;;;14.05;4.00;;;25.80;80.80;;;;;;4953759;28;20038;-74
2022/10/18 12:22:24;;;;;;;13.45;4.00;;;25.60;78.20;;;;;;4954544;28;20082;-72
2022/10/18 12:24:55;;;;;;;;;;;25.20;79.70;;;;;;4948286;28;20015;-74
2022/10/18 12:27:35;;;;;;;13.23;4.65;;;25.30;79.90;;;;;;4944240;28;19922;-74
2022/10/18 12:30:07;;;;;;;11.13;4.25;;;25.50;79.80;;;;;;4948569;28;20020;-75
2022/10/18 12:32:36;;;;;;;13.88;3.35;;;25.60;79.50;;;;;;4953533;28;20125;-74
2022/10/18 12:35:09;;;;;;;9.48;2.97;;;25.70;78.70;;;;;;4955842;28;20034;-72
2022/10/18 12:37:46;;;;;;;7.70;3.22;;;25.80;77.70;;;;;;4958509;28;20031;-73
2022/10/18 12:40:17;;;;;;;10.40;3.17;;;25.80;76.80;;;;;;4964171;28;20054;-74
2022/10/18 12:42:45;;;;;;;12.43;2.97;;;26.70;74.20;;;;;;4958183;28;20041;-72
2022/10/18 12:45:23;;;;;;;13.68;2.92;;;29.00;70.40;;;;;;4955034;28;20043;-74
2022/10/18 12:47:52;;;;;;;7.70;2.83;;;28.40;68.30;;;;;;4958924;28;20101;-72
2022/10/18 12:50:29;;;;;;;7.20;2.53;;;27.80;66.80;;;;;;4954862;28;20059;-73
2022/10/18 12:53:08;;;;;;;12.00;2.92;;;30.90;63.40;;;;;;4951657;28;20024;-74
2022/10/18 12:55:36;;;;;;;7.18;2.90;;;33.70;56.40;;;;;;4949560;28;20340;-74